Time;durP1;ratioP1;P1;durP2;ratioP2;P2;SDS_P1;SDS_P2;PMS_P1;PMS_P2;Temp;Humidity;BMP_temperature;BMP_pressure;BME280_temperature;BME280_humidity;BME280_pressure;Samples;Min_cycle;Max_cycle;Signal;HPM_P1;HPM_P2
2023/09/25 00:00:56;;;;;;;6.50;2.17;;;18.20;99.90;;;;;;6123380;23;20009;-69
2023/09/25 00:03:22;;;;;;;5.07;2.17;;;17.30;99.90;;;;;;6097846;23;20010;-68
2023/09/25 00:05:48;;;;;;;7.07;2.55;;;18.20;99.90;;;;;;6123623;23;20018;-69
2023/09/25 00:08:13;;;;;;;5.85;2.20;;;18.40;99.90;;;;;;6096767;23;20018;-68
2023/09/25 00:10:41;;;;;;;6.03;2.35;;;18.10;99.90;;;;;;6096944;23;20017;-69
2023/09/25 00:13:07;;;;;;;5.85;1.95;;;17.50;99.90;;;;;;6097423;23;20544;-68
2023/09/25 00:15:33;;;;;;;5.88;1.95;;;17.40;99.90;;;;;;6097213;23;20042;-68
2023/09/25 00:17:58;;;;;;;5.40;2.03;;;17.70;99.90;;;;;;6122723;23;20436;-68
2023/09/25 00:20:24;;;;;;;5.47;2.10;;;17.80;99.90;;;;;;6096244;23;20021;-68
2023/09/25 00:22:51;;;;;;;4.80;2.22;;;;;;;;;;6122718;23;20018;-68
2023/09/25 00:25:20;;;;;;;4.97;2.10;;;18.30;97.90;;;;;;6097360;23;20025;-68
2023/09/25 00:27:46;;;;;;;5.22;1.90;;;18.10;91.00;;;;;;6073263;23;20022;-68
2023/09/25 00:30:13;;;;;;;7.40;2.40;;;18.20;99.90;;;;;;6097575;23;20020;-68
2023/09/25 00:32:39;;;;;;;5.78;2.20;;;18.20;99.90;;;;;;6118083;23;20020;-68
2023/09/25 00:35:10;;;;;;;5.40;2.10;;;17.90;99.90;;;;;;6121915;23;20363;-68
2023/09/25 00:37:37;;;;;;;5.35;1.83;;;17.50;99.90;;;;;;6123331;23;20018;-68
2023/09/25 00:40:37;;;;;;;6.05;2.33;;;17.70;99.90;;;;;;6121826;23;20009;-68
2023/09/25 00:42:55;;;;;;;5.10;2.05;;;17.20;99.90;;;;;;6119527;23;20087;-68
2023/09/25 00:45:22;;;;;;;6.85;2.83;;;17.90;99.90;;;;;;6122911;23;20053;-69
2023/09/25 00:47:49;;;;;;;5.38;2.00;;;18.00;99.90;;;;;;6120870;23;20029;-70
2023/09/25 00:50:16;;;;;;;6.13;2.50;;;18.20;99.90;;;;;;6123579;23;20510;-69
2023/09/25 00:52:44;;;;;;;5.00;2.08;;;18.40;99.90;;;;;;6121359;23;20028;-69
2023/09/25 00:55:12;;;;;;;6.38;2.58;;;17.30;99.90;;;;;;6123950;23;20018;-69
2023/09/25 00:57:38;;;;;;;5.60;2.47;;;17.30;99.90;;;;;;6120982;23;20384;-69
2023/09/25 01:00:11;;;;;;;6.32;2.38;;;17.50;99.90;;;;;;6097437;23;20428;-69
2023/09/25 01:02:40;;;;;;;5.28;2.47;;;17.10;99.90;;;;;;6097402;23;20028;-69
2023/09/25 01:05:08;;;;;;;7.07;2.90;;;18.20;97.10;;;;;;6122469;23;20025;-69
2023/09/25 01:07:38;;;;;;;5.13;2.40;;;17.20;99.90;;;;;;6122141;23;20018;-69
2023/09/25 01:10:15;;;;;;;6.13;2.58;;;17.80;99.90;;;;;;6099497;23;20045;-69
2023/09/25 01:12:45;;;;;;;6.72;2.53;;;17.20;99.90;;;;;;6123201;23;20018;-69
2023/09/25 01:15:12;;;;;;;6.40;2.70;;;17.10;99.90;;;;;;6122934;23;20456;-69
2023/09/25 01:17:38;;;;;;;5.88;2.65;;;17.70;99.90;;;;;;6123147;23;20036;-69
2023/09/25 01:20:15;;;;;;;7.47;2.65;;;18.20;99.90;;;;;;6124778;23;20068;-69
2023/09/25 01:22:41;;;;;;;5.85;2.92;;;17.10;96.90;;;;;;6098275;23;20044;-69
2023/09/25 01:25:10;;;;;;;6.63;2.85;;;17.10;99.90;;;;;;6123592;23;20452;-69
2023/09/25 01:27:37;;;;;;;6.45;2.60;;;17.10;99.90;;;;;;6121748;23;20362;-69
2023/09/25 01:30:09;;;;;;;5.60;2.55;;;17.60;99.90;;;;;;6123799;23;20097;-69
2023/09/25 01:32:37;;;;;;;5.95;2.63;;;17.50;99.90;;;;;;6097420;23;20725;-69
2023/09/25 01:35:08;;;;;;;6.25;2.72;;;18.10;99.90;;;;;;6124699;23;20014;-69
2023/09/25 01:37:34;;;;;;;7.18;2.75;;;17.20;99.90;;;;;;6126811;23;20010;-69
2023/09/25 01:40:00;;;;;;;5.75;2.60;;;17.10;95.80;;;;;;6128379;23;20009;-70
2023/09/25 01:42:26;;;;;;;6.03;2.72;;;18.10;99.90;;;;;;6124897;23;20352;-69
2023/09/25 01:44:51;;;;;;;5.43;2.47;;;17.40;98.70;;;;;;6125446;23;20615;-68
2023/09/25 01:47:17;;;;;;;6.65;3.17;;;18.20;99.90;;;;;;6124996;23;20018;-69
2023/09/25 01:49:43;;;;;;;5.65;2.60;;;17.80;99.90;;;;;;6122001;23;20017;-69
2023/09/25 01:52:09;;;;;;;5.93;2.85;;;17.10;98.80;;;;;;6098738;23;20428;-69
2023/09/25 01:54:35;;;;;;;8.23;3.00;;;17.60;99.90;;;;;;6122165;23;20046;-69
2023/09/25 01:57:04;;;;;;;5.90;2.33;;;17.00;98.70;;;;;;6122628;23;20049;-69
2023/09/25 01:59:30;;;;;;;7.00;2.67;;;17.90;99.90;;;;;;6123946;23;20090;-69
2023/09/25 02:01:56;;;;;;;6.13;2.60;;;17.30;99.90;;;;;;6123403;23;20460;-69
2023/09/25 02:04:22;;;;;;;7.15;2.58;;;17.10;99.90;;;;;;6124003;23;20061;-69
2023/09/25 02:06:51;;;;;;;5.50;2.38;;;17.50;99.90;;;;;;6125630;23;20018;-69
2023/09/25 02:09:17;;;;;;;8.88;2.47;;;17.40;99.50;;;;;;6123702;23;20018;-69
2023/09/25 02:11:42;;;;;;;5.93;2.60;;;17.80;98.00;;;;;;6125033;23;20333;-68
2023/09/25 02:14:08;;;;;;;5.55;2.50;;;16.90;99.90;;;;;;6123309;23;20352;-69
2023/09/25 02:16:34;;;;;;;5.60;2.70;;;18.00;99.90;;;;;;6122709;23;20037;-69
2023/09/25 02:19:00;;;;;;;8.27;2.58;;;17.50;99.90;;;;;;6122674;23;20400;-69
2023/09/25 02:21:25;;;;;;;5.82;2.60;;;17.00;99.90;;;;;;6123357;23;20492;-69
2023/09/25 02:23:51;;;;;;;6.35;2.60;;;17.20;99.90;;;;;;6124543;23;20026;-69
2023/09/25 02:26:17;;;;;;;6.30;2.55;;;17.30;97.70;;;;;;6125529;23;20016;-69
2023/09/25 02:28:42;;;;;;;6.32;2.90;;;17.10;99.80;;;;;;6122818;23;20093;-69
2023/09/25 02:31:08;;;;;;;6.05;2.92;;;16.80;99.60;;;;;;6124511;23;20021;-69
2023/09/25 02:33:34;;;;;;;5.65;2.55;;;17.00;99.40;;;;;;6073785;23;20040;-69
2023/09/25 02:36:09;;;;;;;5.47;2.55;;;;;;;;;;6124543;23;20016;-69
2023/09/25 02:38:35;;;;;;;5.80;2.70;;;16.70;94.30;;;;;;6074449;23;20013;-69
2023/09/25 02:41:01;;;;;;;6.68;2.90;;;17.40;99.90;;;;;;6098086;23;20014;-69
2023/09/25 02:43:27;;;;;;;6.20;2.90;;;16.80;96.10;;;;;;6099066;23;20351;-68
2023/09/25 02:45:53;;;;;;;5.40;2.47;;;17.50;99.60;;;;;;6124359;23;20085;-69
2023/09/25 02:48:21;;;;;;;6.10;3.03;;;16.80;96.60;;;;;;6098437;23;20105;-70
2023/09/25 02:50:47;;;;;;;7.25;3.13;;;17.30;99.70;;;;;;6073944;23;20017;-69
2023/09/25 02:53:13;;;;;;;9.13;2.92;;;17.00;96.20;;;;;;6123590;23;20141;-70
2023/09/25 02:55:39;;;;;;;6.00;2.80;;;17.10;94.90;;;;;;6098606;23;20066;-69
2023/09/25 02:58:05;;;;;;;5.15;2.50;;;17.90;97.80;;;;;;6124820;23;20010;-70
2023/09/25 03:00:30;;;;;;;5.68;2.50;;;17.00;98.50;;;;;;6074273;23;20016;-69
2023/09/25 03:02:57;;;;;;;5.93;2.83;;;16.70;97.80;;;;;;6124023;23;20021;-68
2023/09/25 03:05:24;;;;;;;6.63;3.20;;;16.80;97.90;;;;;;6123773;23;20018;-68
2023/09/25 03:07:49;;;;;;;6.05;2.70;;;17.40;97.40;;;;;;6123302;23;20014;-68
2023/09/25 03:10:15;;;;;;;6.55;3.03;;;17.30;98.70;;;;;;6124882;23;20033;-70
2023/09/25 03:12:41;;;;;;;5.68;2.97;;;17.10;94.90;;;;;;6098112;23;20145;-68
2023/09/25 03:15:08;;;;;;;7.00;2.90;;;17.00;97.00;;;;;;6124737;23;20445;-69
2023/09/25 03:17:35;;;;;;;8.27;2.80;;;17.30;96.00;;;;;;6073903;23;20118;-69
2023/09/25 03:20:12;;;;;;;6.00;2.65;;;17.30;97.70;;;;;;6097089;23;20515;-69
2023/09/25 03:22:38;;;;;;;5.28;2.28;;;16.50;96.80;;;;;;6097898;23;20018;-69
2023/09/25 03:25:05;;;;;;;7.25;2.58;;;16.90;95.20;;;;;;6098199;23;20024;-69
2023/09/25 03:27:31;;;;;;;6.65;3.08;;;17.00;94.80;;;;;;6097626;23;20467;-69
2023/09/25 03:29:56;;;;;;;6.65;2.42;;;17.30;97.20;;;;;;6097591;23;20024;-69
2023/09/25 03:32:22;;;;;;;6.03;2.50;;;17.70;94.80;;;;;;6090788;23;20022;-69
2023/09/25 03:34:50;;;;;;;7.70;2.75;;;16.80;91.20;;;;;;6123970;23;20546;-69
2023/09/25 03:37:16;;;;;;;5.90;2.78;;;17.10;92.50;;;;;;6121586;23;20426;-69
2023/09/25 03:39:41;;;;;;;5.18;2.28;;;18.70;94.90;;;;;;6097660;23;20044;-69
2023/09/25 03:42:07;;;;;;;5.43;2.72;;;16.80;92.80;;;;;;6097623;23;20399;-69
2023/09/25 03:44:33;;;;;;;5.70;2.85;;;16.60;96.70;;;;;;6097843;23;20463;-69
2023/09/25 03:46:58;;;;;;;6.80;2.65;;;16.90;95.40;;;;;;6096937;23;20014;-69
2023/09/25 03:49:24;;;;;;;5.03;2.42;;;16.60;95.20;;;;;;6122426;23;20452;-69
2023/09/25 03:51:50;;;;;;;6.85;2.47;;;16.70;95.30;;;;;;6121899;23;20057;-68
2023/09/25 03:54:15;;;;;;;6.78;2.85;;;17.10;93.20;;;;;;6122138;23;20018;-69
2023/09/25 03:56:41;;;;;;;7.13;2.38;;;16.70;95.20;;;;;;6121795;23;20018;-69
2023/09/25 03:59:07;;;;;;;6.72;2.85;;;16.60;93.30;;;;;;6120613;23;20344;-69
2023/09/25 04:01:32;;;;;;;5.43;2.72;;;16.90;93.50;;;;;;6121649;23;20010;-69
2023/09/25 04:03:58;;;;;;;5.90;2.78;;;17.10;93.80;;;;;;6121565;23;20010;-69
2023/09/25 04:06:24;;;;;;;8.85;2.78;;;17.90;94.50;;;;;;6124117;23;20014;-69
2023/09/25 04:08:50;;;;;;;6.38;2.65;;;17.20;95.40;;;;;;6121200;23;20014;-69
2023/09/25 04:11:16;;;;;;;5.95;2.70;;;16.40;94.90;;;;;;6123696;23;20020;-69
2023/09/25 04:13:42;;;;;;;7.28;3.13;;;16.90;93.90;;;;;;6121941;23;20054;-69
2023/09/25 04:16:12;;;;;;;7.10;2.75;;;16.50;89.70;;;;;;6120996;23;20017;-69
2023/09/25 04:18:39;;;;;;;7.45;2.85;;;17.80;93.00;;;;;;6123151;23;20020;-69
2023/09/25 04:21:07;;;;;;;7.10;2.53;;;17.20;93.30;;;;;;6123473;23;20025;-68
2023/09/25 04:23:33;;;;;;;6.22;3.00;;;16.70;75.50;;;;;;6123453;23;20021;-68
2023/09/25 04:26:04;;;;;;;6.55;2.67;;;16.80;92.90;;;;;;6121545;23;20020;-68
2023/09/25 04:28:30;;;;;;;6.20;2.85;;;;;;;;;;6121898;23;20014;-68
2023/09/25 04:30:59;;;;;;;5.78;2.20;;;17.10;93.80;;;;;;6123032;23;20395;-69
2023/09/25 04:33:26;;;;;;;5.80;2.50;;;16.60;67.50;;;;;;6123125;23;20077;-70
2023/09/25 04:35:58;;;;;;;5.40;2.38;;;16.50;94.60;;;;;;6097745;23;20017;-70
2023/09/25 04:38:27;;;;;;;6.05;2.28;;;16.70;97.20;;;;;;6122963;23;20379;-70
2023/09/25 04:40:54;;;;;;;6.00;2.25;;;16.90;80.30;;;;;;6123348;23;20186;-70
2023/09/25 04:43:21;;;;;;;6.93;2.80;;;16.60;96.50;;;;;;6096006;23;20013;-70
2023/09/25 04:45:47;;;;;;;8.73;3.78;;;17.10;94.70;;;;;;6096700;23;20010;-70
2023/09/25 04:48:13;;;;;;;7.25;3.33;;;16.70;97.80;;;;;;6096386;23;20025;-70
2023/09/25 04:50:40;;;;;;;7.55;2.60;;;17.20;99.90;;;;;;6095723;23;20347;-70
2023/09/25 04:53:10;;;;;;;12.50;3.20;;;16.80;99.90;;;;;;6122836;23;20024;-69
2023/09/25 04:55:38;;;;;;;9.60;3.83;;;17.10;99.10;;;;;;6096941;23;20014;-68
2023/09/25 04:58:03;;;;;;;10.35;3.88;;;17.80;99.90;;;;;;6122478;23;20089;-67
2023/09/25 05:00:31;;;;;;;9.80;3.53;;;17.10;98.20;;;;;;6122179;23;20045;-68
2023/09/25 05:02:58;;;;;;;10.35;3.90;;;16.80;99.90;;;;;;6096413;23;20021;-68
2023/09/25 05:05:24;;;;;;;7.13;2.95;;;17.20;99.90;;;;;;6123591;23;20018;-68
2023/09/25 05:07:52;;;;;;;6.47;2.42;;;18.00;99.90;;;;;;6071974;23;20068;-68
2023/09/25 05:10:23;;;;;;;6.72;2.40;;;17.60;99.90;;;;;;6123266;23;20017;-69
2023/09/25 05:12:49;;;;;;;6.38;2.22;;;18.10;99.90;;;;;;6068770;23;20014;-69
2023/09/25 05:15:16;;;;;;;8.15;2.22;;;17.30;99.90;;;;;;6094079;23;20041;-69
2023/09/25 05:17:43;;;;;;;7.15;2.45;;;17.50;99.90;;;;;;6096657;23;20068;-70
2023/09/25 05:20:18;;;;;;;7.68;2.92;;;17.50;99.90;;;;;;6072547;23;20014;-68
2023/09/25 05:22:52;;;;;;;5.85;2.60;;;17.30;99.90;;;;;;6095418;23;20018;-67
2023/09/25 05:25:19;;;;;;;5.53;2.40;;;18.10;99.90;;;;;;6118597;23;20025;-67
2023/09/25 05:27:47;;;;;;;5.88;2.25;;;17.50;99.90;;;;;;6066173;23;20101;-67
2023/09/25 05:30:14;;;;;;;6.05;2.65;;;;;;;;;;6091327;23;20467;-67
2023/09/25 05:32:41;;;;;;;6.88;2.30;;;17.10;93.40;;;;;;6117037;23;20475;-67
2023/09/25 05:35:08;;;;;;;5.65;2.42;;;17.00;99.90;;;;;;6071264;23;20049;-69
2023/09/25 05:37:34;;;;;;;7.85;2.85;;;17.50;99.90;;;;;;6096476;23;20483;-68
2023/09/25 05:40:01;;;;;;;6.40;2.50;;;17.30;99.90;;;;;;6098570;23;20021;-67
2023/09/25 05:42:26;;;;;;;5.88;2.28;;;17.30;96.30;;;;;;6125465;23;20037;-68
2023/09/25 05:44:52;;;;;;;5.80;2.50;;;18.00;98.30;;;;;;6074459;23;20448;-67
2023/09/25 05:47:18;;;;;;;6.63;2.63;;;17.00;97.00;;;;;;6124733;23;20460;-67
2023/09/25 05:49:44;;;;;;;5.63;2.78;;;18.30;96.20;;;;;;6125082;23;20020;-67
2023/09/25 05:52:10;;;;;;;8.68;2.63;;;18.10;96.80;;;;;;6124076;23;20105;-68
2023/09/25 05:54:35;;;;;;;7.40;2.60;;;18.00;94.70;;;;;;6099059;23;20095;-69
2023/09/25 05:57:01;;;;;;;6.43;2.72;;;18.10;94.50;;;;;;6098186;23;20010;-68
2023/09/25 05:59:28;;;;;;;6.35;2.05;;;18.10;92.60;;;;;;6098926;23;20478;-68
2023/09/25 06:01:53;;;;;;;5.82;2.47;;;16.80;95.70;;;;;;6124847;23;20013;-68
2023/09/25 06:04:19;;;;;;;5.50;2.38;;;17.60;95.30;;;;;;6098978;23;20069;-68
2023/09/25 06:06:45;;;;;;;5.38;2.25;;;16.90;94.90;;;;;;6124631;23;20324;-68
2023/09/25 06:09:15;;;;;;;4.93;2.20;;;17.50;93.60;;;;;;6098006;23;20022;-68
2023/09/25 06:11:41;;;;;;;7.68;2.05;;;17.00;93.30;;;;;;6098968;23;20013;-68
2023/09/25 06:14:09;;;;;;;5.18;2.22;;;18.00;94.20;;;;;;6098664;23;20444;-68
2023/09/25 06:16:36;;;;;;;5.35;2.25;;;17.00;93.50;;;;;;6099094;23;20014;-68
2023/09/25 06:19:03;;;;;;;7.05;2.30;;;17.00;93.10;;;;;;6098458;23;20388;-68
2023/09/25 06:21:30;;;;;;;5.35;2.40;;;17.10;92.50;;;;;;6100529;23;20096;-68
2023/09/25 06:23:56;;;;;;;5.53;1.95;;;17.30;93.80;;;;;;6129737;23;20020;-67
2023/09/25 06:26:23;;;;;;;5.05;2.13;;;17.70;92.30;;;;;;6100493;23;20022;-68
2023/09/25 06:28:50;;;;;;;7.47;2.50;;;18.00;93.20;;;;;;6101409;23;20037;-67
2023/09/25 06:31:17;;;;;;;5.13;2.20;;;16.80;90.40;;;;;;6079107;23;20432;-67
2023/09/25 06:33:42;;;;;;;5.93;2.20;;;18.00;91.70;;;;;;6125402;23;20045;-67
2023/09/25 06:36:08;;;;;;;5.20;2.33;;;17.70;91.90;;;;;;6124083;23;20033;-68
2023/09/25 06:38:34;;;;;;;6.05;2.40;;;16.90;91.60;;;;;;6124725;23;20081;-68
2023/09/25 06:40:59;;;;;;;5.03;2.30;;;17.20;92.90;;;;;;6122784;23;20021;-66
2023/09/25 06:43:25;;;;;;;5.55;2.30;;;17.10;92.90;;;;;;6123545;23;20022;-67
2023/09/25 06:45:51;;;;;;;5.10;2.10;;;17.30;93.80;;;;;;6125598;23;20085;-67
2023/09/25 06:48:18;;;;;;;6.35;1.98;;;;;;;;;;6124531;23;20392;-67
2023/09/25 06:50:43;;;;;;;6.15;1.88;;;17.10;94.80;;;;;;6123086;23;20021;-67
2023/09/25 06:53:09;;;;;;;4.80;1.92;;;16.80;93.30;;;;;;6098367;23;20018;-67
2023/09/25 06:55:37;;;;;;;7.50;2.10;;;16.90;90.30;;;;;;6122792;23;20021;-67
2023/09/25 06:58:03;;;;;;;4.82;2.17;;;17.80;94.90;;;;;;6123776;23;20037;-69
2023/09/25 07:00:29;;;;;;;6.55;2.33;;;17.50;95.10;;;;;;6098143;23;20009;-68
2023/09/25 07:02:54;;;;;;;4.45;1.98;;;17.40;91.20;;;;;;6122864;23;20010;-69
2023/09/25 07:05:20;;;;;;;6.43;2.38;;;16.70;92.50;;;;;;6122629;23;20025;-68
2023/09/25 07:07:47;;;;;;;5.10;2.20;;;17.10;92.30;;;;;;6122242;23;20068;-68
2023/09/25 07:10:12;;;;;;;6.63;2.25;;;17.00;92.90;;;;;;6123889;23;20092;-68
2023/09/25 07:12:38;;;;;;;5.40;2.33;;;16.80;91.60;;;;;;6122211;23;20085;-68
2023/09/25 07:15:05;;;;;;;7.57;2.53;;;17.20;92.10;;;;;;6123754;23;20377;-68
2023/09/25 07:17:31;;;;;;;6.65;2.13;;;17.30;86.30;;;;;;6122338;23;20052;-68
2023/09/25 07:19:56;;;;;;;5.45;2.03;;;17.40;88.80;;;;;;6124206;23;20006;-68
2023/09/25 07:22:24;;;;;;;6.95;2.65;;;17.90;92.20;;;;;;6124046;23;20040;-68
2023/09/25 07:24:50;;;;;;;5.68;1.98;;;17.30;88.60;;;;;;6122369;23;20025;-68
2023/09/25 07:27:16;;;;;;;5.30;2.58;;;17.10;91.70;;;;;;6123430;23;20017;-68
2023/09/25 07:29:45;;;;;;;6.30;2.78;;;17.10;92.60;;;;;;6122257;23;20447;-68
2023/09/25 07:32:11;;;;;;;10.48;2.83;;;17.00;94.80;;;;;;6121792;23;20025;-68
2023/09/25 07:34:38;;;;;;;5.10;2.30;;;17.40;93.60;;;;;;6097983;23;20014;-68
2023/09/25 07:37:05;;;;;;;7.80;2.30;;;17.20;93.80;;;;;;6123401;23;20595;-68
2023/09/25 07:39:34;;;;;;;7.00;2.55;;;17.50;91.00;;;;;;6097913;23;20017;-68
2023/09/25 07:42:01;;;;;;;5.95;2.17;;;17.50;94.40;;;;;;6122185;23;20018;-68
2023/09/25 07:44:33;;;;;;;6.70;2.08;;;17.40;89.80;;;;;;6097521;23;20020;-68
2023/09/25 07:47:00;;;;;;;5.20;2.33;;;17.30;91.00;;;;;;6121424;23;20515;-68
2023/09/25 07:49:27;;;;;;;5.50;2.53;;;17.30;94.00;;;;;;6097794;23;20037;-68
2023/09/25 07:52:00;;;;;;;4.38;1.95;;;17.70;90.90;;;;;;6123565;23;20014;-68
2023/09/25 07:54:26;;;;;;;5.38;2.50;;;17.10;90.60;;;;;;6122058;23;20010;-68
2023/09/25 07:56:52;;;;;;;8.02;2.50;;;17.40;94.30;;;;;;6123106;23;20045;-68
2023/09/25 07:59:25;;;;;;;7.88;2.80;;;17.50;93.20;;;;;;6121892;23;20021;-68
2023/09/25 08:01:50;;;;;;;5.97;2.33;;;17.50;90.70;;;;;;6122029;23;20025;-68
2023/09/25 08:04:17;;;;;;;6.55;2.05;;;18.10;92.80;;;;;;6122471;23;20010;-68
2023/09/25 08:06:42;;;;;;;5.70;2.28;;;17.00;93.00;;;;;;6097485;23;20014;-68
2023/09/25 08:09:09;;;;;;;5.65;2.20;;;18.40;93.00;;;;;;6121191;23;20010;-68
2023/09/25 08:11:34;;;;;;;6.18;2.58;;;18.40;92.70;;;;;;6123532;23;20020;-68
2023/09/25 08:14:00;;;;;;;4.70;2.25;;;17.10;91.80;;;;;;6123357;23;20385;-68
2023/09/25 08:16:27;;;;;;;7.20;2.75;;;17.70;88.70;;;;;;6121642;23;20020;-68
2023/09/25 08:18:52;;;;;;;4.93;2.15;;;18.10;89.70;;;;;;6097320;23;20018;-67
2023/09/25 08:21:19;;;;;;;6.05;2.45;;;17.40;90.10;;;;;;6121167;23;20033;-67
2023/09/25 08:23:45;;;;;;;5.88;1.95;;;17.00;89.50;;;;;;6122087;23;20133;-67
2023/09/25 08:26:11;;;;;;;5.13;1.90;;;17.80;89.50;;;;;;6097065;23;20061;-69
2023/09/25 08:28:36;;;;;;;5.47;2.10;;;17.30;90.70;;;;;;6121493;23;20333;-69
2023/09/25 08:31:02;;;;;;;5.07;2.17;;;17.10;90.20;;;;;;6097228;23;20041;-69
2023/09/25 08:33:27;;;;;;;4.65;1.98;;;17.90;90.50;;;;;;6123549;23;20022;-69
2023/09/25 08:35:53;;;;;;;4.68;1.92;;;17.20;90.00;;;;;;6123897;23;20056;-69
2023/09/25 08:38:19;;;;;;;6.30;2.20;;;17.90;90.60;;;;;;6120937;23;20010;-69
2023/09/25 08:40:49;;;;;;;6.00;2.20;;;17.80;87.20;;;;;;6123211;23;20443;-69
2023/09/25 08:43:15;;;;;;;5.30;1.90;;;17.50;86.40;;;;;;6123040;23;20014;-69
2023/09/25 08:45:43;;;;;;;5.35;2.20;;;18.00;91.00;;;;;;6122017;23;20022;-69
2023/09/25 08:48:13;;;;;;;5.18;2.10;;;17.20;92.10;;;;;;6120969;23;20018;-67
2023/09/25 08:50:40;;;;;;;4.97;1.75;;;18.10;90.80;;;;;;6123674;23;20014;-67
2023/09/25 08:53:06;;;;;;;5.85;2.03;;;16.80;93.30;;;;;;6123369;23;20014;-67
2023/09/25 08:55:33;;;;;;;6.05;2.03;;;17.30;90.60;;;;;;6122917;23;20022;-67
2023/09/25 08:58:00;;;;;;;4.90;2.00;;;17.00;93.80;;;;;;6121160;23;20017;-67
2023/09/25 09:00:30;;;;;;;4.90;1.88;;;18.00;94.10;;;;;;6121562;23;20269;-69
2023/09/25 09:02:56;;;;;;;5.45;2.15;;;18.00;94.40;;;;;;6123658;23;20018;-67
2023/09/25 09:05:21;;;;;;;5.05;1.92;;;17.50;91.30;;;;;;6099121;23;20024;-67
2023/09/25 09:08:03;;;;;;;6.78;2.28;;;17.70;96.90;;;;;;6124857;23;20014;-66
2023/09/25 09:10:33;;;;;;;6.20;2.50;;;17.60;95.00;;;;;;6125349;23;20014;-67
2023/09/25 09:13:01;;;;;;;6.40;2.30;;;17.40;97.20;;;;;;6123425;23;20018;-67
2023/09/25 09:15:28;;;;;;;5.40;2.33;;;18.00;94.70;;;;;;6123520;23;20013;-67
2023/09/25 09:17:55;;;;;;;5.65;2.20;;;17.70;95.60;;;;;;6122867;23;20075;-67
2023/09/25 09:20:37;;;;;;;4.88;1.83;;;17.40;96.50;;;;;;6124844;23;20042;-67
2023/09/25 09:23:03;;;;;;;5.55;2.50;;;17.40;95.40;;;;;;6123750;23;20514;-67
2023/09/25 09:25:33;;;;;;;5.00;2.20;;;17.30;93.70;;;;;;6123537;23;20097;-69
2023/09/25 09:27:59;;;;;;;5.05;2.10;;;17.60;85.00;;;;;;6122870;23;20452;-69
2023/09/25 09:30:25;;;;;;;6.85;2.50;;;17.50;97.10;;;;;;6123379;23;20021;-69
2023/09/25 09:32:51;;;;;;;5.95;2.20;;;17.60;94.50;;;;;;6122787;23;20029;-69
2023/09/25 09:35:27;;;;;;;5.93;1.90;;;17.10;96.40;;;;;;6123171;23;20010;-69
2023/09/25 09:37:54;;;;;;;5.07;1.80;;;17.70;92.40;;;;;;6124352;23;20468;-69
2023/09/25 09:40:24;;;;;;;4.72;2.15;;;17.60;98.70;;;;;;6124642;23;20481;-69
2023/09/25 09:42:51;;;;;;;4.20;1.80;;;17.50;99.90;;;;;;6099064;23;20018;-70
2023/09/25 09:45:21;;;;;;;6.05;2.22;;;17.40;95.10;;;;;;6122926;23;20018;-69
2023/09/25 09:47:48;;;;;;;5.43;2.33;;;17.40;99.90;;;;;;6122913;23;20022;-69
2023/09/25 09:50:20;;;;;;;5.10;2.13;;;17.10;99.70;;;;;;6123204;23;20014;-69
2023/09/25 09:52:46;;;;;;;5.07;2.03;;;18.40;99.90;;;;;;6123354;23;20459;-69
2023/09/25 09:55:14;;;;;;;6.65;2.80;;;17.40;99.70;;;;;;6125097;23;20018;-69
2023/09/25 09:57:40;;;;;;;5.78;2.15;;;17.90;99.90;;;;;;6124579;23;20041;-69
2023/09/25 10:00:07;;;;;;;5.85;2.05;;;17.80;99.90;;;;;;6122765;23;20052;-69
2023/09/25 10:02:34;;;;;;;5.88;2.33;;;17.50;96.90;;;;;;6123259;23;20018;-69
2023/09/25 10:05:00;;;;;;;5.15;1.80;;;18.00;99.90;;;;;;6123141;23;20018;-69
2023/09/25 10:07:26;;;;;;;5.93;1.90;;;17.80;97.60;;;;;;6123839;23;20478;-69
2023/09/25 10:10:06;;;;;;;6.07;2.35;;;17.40;99.90;;;;;;6124857;23;20490;-69
2023/09/25 10:12:48;;;;;;;5.20;2.05;;;18.60;99.90;;;;;;6122772;23;20097;-69
2023/09/25 10:15:21;;;;;;;5.75;2.20;;;17.30;99.90;;;;;;6125004;23;20010;-69
2023/09/25 10:17:48;;;;;;;7.03;2.28;;;18.30;99.90;;;;;;6122566;23;20018;-69
2023/09/25 10:20:33;;;;;;;5.22;2.10;;;17.50;96.90;;;;;;6122982;23;20344;-69
2023/09/25 10:23:21;;;;;;;6.78;2.53;;;;;;;;;;6124671;23;20014;-69
2023/09/25 10:25:52;;;;;;;5.43;2.25;;;17.30;96.50;;;;;;6124704;23;20121;-69
2023/09/25 10:28:33;;;;;;;6.80;2.40;;;18.30;99.90;;;;;;6097746;23;20392;-69
2023/09/25 10:31:01;;;;;;;4.97;1.90;;;17.30;89.50;;;;;;6124556;23;20020;-69
2023/09/25 10:33:54;;;;;;;4.93;1.73;;;17.20;99.90;;;;;;6098176;23;20014;-69
2023/09/25 10:36:21;;;;;;;5.07;1.90;;;18.20;90.30;;;;;;6087901;23;20452;-69
2023/09/25 10:38:54;;;;;;;3.97;1.50;;;17.40;99.90;;;;;;6124027;23;20081;-69
2023/09/25 10:41:22;;;;;;;6.70;2.05;;;18.40;99.10;;;;;;6124645;23;20340;-69
2023/09/25 10:43:48;;;;;;;4.75;1.70;;;17.30;99.90;;;;;;6098512;23;20029;-69
2023/09/25 10:46:14;;;;;;;5.43;1.88;;;18.50;99.90;;;;;;6124843;23;20344;-69
2023/09/25 10:48:40;;;;;;;4.88;2.00;;;19.10;99.90;;;;;;6097721;23;20359;-67
2023/09/25 10:51:06;;;;;;;5.03;1.85;;;18.10;99.90;;;;;;6098188;23;20097;-67
2023/09/25 10:53:33;;;;;;;5.07;2.10;;;18.60;99.90;;;;;;6097971;23;20050;-67
2023/09/25 10:55:59;;;;;;;5.68;1.95;;;17.90;99.90;;;;;;6124613;23;20474;-67
2023/09/25 10:58:26;;;;;;;5.82;1.63;;;18.40;99.90;;;;;;6123743;23;20071;-67
2023/09/25 11:00:51;;;;;;;6.00;2.33;;;17.50;99.90;;;;;;6098319;23;20022;-67
2023/09/25 11:03:18;;;;;;;5.15;2.17;;;18.40;99.90;;;;;;6124532;23;20218;-70
2023/09/25 11:05:44;;;;;;;5.07;1.80;;;17.60;99.90;;;;;;6097940;23;20359;-69
2023/09/25 11:08:12;;;;;;;5.07;2.20;;;18.30;99.90;;;;;;6097549;23;20049;-69
2023/09/25 11:10:38;;;;;;;4.32;1.70;;;17.80;99.90;;;;;;6123965;23;20018;-69
2023/09/25 11:13:04;;;;;;;4.72;1.75;;;18.40;99.90;;;;;;6097976;23;20098;-69
2023/09/25 11:15:39;;;;;;;5.35;2.00;;;18.00;99.90;;;;;;6124876;23;20021;-69
2023/09/25 11:18:10;;;;;;;4.32;1.80;;;18.00;95.40;;;;;;6097695;23;20014;-69
2023/09/25 11:20:37;;;;;;;4.68;1.60;;;17.30;99.90;;;;;;6098916;23;20448;-69
2023/09/25 11:23:08;;;;;;;4.68;2.13;;;18.10;99.90;;;;;;6099232;23;20018;-69
2023/09/25 11:25:44;;;;;;;4.55;1.83;;;18.60;96.50;;;;;;6098078;23;20017;-69
2023/09/25 11:28:14;;;;;;;4.88;1.90;;;18.10;99.90;;;;;;6123190;23;20072;-67
2023/09/25 11:30:41;;;;;;;4.78;1.77;;;17.80;99.90;;;;;;6124073;23;20013;-67
2023/09/25 11:33:09;;;;;;;5.15;2.08;;;18.10;99.90;;;;;;6123725;23;20010;-67
2023/09/25 11:35:39;;;;;;;5.45;2.20;;;18.60;99.90;;;;;;6097973;23;20025;-67
2023/09/25 11:38:12;;;;;;;5.15;2.00;;;18.50;99.90;;;;;;6073515;23;20101;-67
2023/09/25 11:40:39;;;;;;;4.43;1.80;;;18.30;99.90;;;;;;6124015;23;20073;-67
2023/09/25 11:43:06;;;;;;;4.93;2.20;;;18.00;99.90;;;;;;6124015;23;20025;-67
2023/09/25 11:45:33;;;;;;;4.85;2.05;;;17.30;99.90;;;;;;6123697;23;20471;-67
2023/09/25 11:48:00;;;;;;;5.03;2.08;;;18.10;99.90;;;;;;6097598;23;20137;-67
2023/09/25 11:50:26;;;;;;;6.47;2.38;;;17.60;99.90;;;;;;6123666;23;20014;-67
2023/09/25 11:52:52;;;;;;;6.10;2.15;;;18.20;99.90;;;;;;6097977;23;20443;-67
2023/09/25 11:55:19;;;;;;;5.28;2.35;;;18.00;99.90;;;;;;6097658;23;20010;-67
2023/09/25 11:57:46;;;;;;;5.22;2.05;;;16.30;99.90;;;;;;6123390;23;20010;-67
2023/09/25 12:00:18;;;;;;;7.15;2.50;;;18.60;99.90;;;;;;6123696;23;20036;-67
2023/09/25 12:02:48;;;;;;;5.85;2.42;;;17.40;99.90;;;;;;6073478;23;20018;-67
2023/09/25 12:05:14;;;;;;;5.35;2.22;;;18.20;99.90;;;;;;6097522;23;20233;-67
2023/09/25 12:07:41;;;;;;;7.10;2.60;;;18.20;99.90;;;;;;6096605;23;20037;-68
2023/09/25 12:10:07;;;;;;;5.18;2.20;;;18.30;99.90;;;;;;6097763;23;20359;-67
2023/09/25 12:12:35;;;;;;;5.53;2.20;;;18.50;99.90;;;;;;6097204;23;20022;-67
2023/09/25 12:15:03;;;;;;;7.03;2.75;;;18.40;99.90;;;;;;6123523;23;20014;-67
2023/09/25 12:17:30;;;;;;;6.40;2.78;;;18.40;99.90;;;;;;6122567;23;20010;-67
2023/09/25 12:19:57;;;;;;;6.97;3.03;;;17.70;99.90;;;;;;6123195;23;20041;-67
2023/09/25 12:22:23;;;;;;;5.30;2.30;;;18.10;99.90;;;;;;6097671;23;20360;-68
2023/09/25 12:24:48;;;;;;;6.55;2.33;;;18.70;99.90;;;;;;6097188;23;20025;-68
2023/09/25 12:27:14;;;;;;;7.05;2.53;;;18.30;99.90;;;;;;6096858;23;20024;-67
2023/09/25 12:29:40;;;;;;;6.65;2.22;;;17.70;99.90;;;;;;6097582;23;20531;-68
2023/09/25 12:32:06;;;;;;;6.15;2.53;;;18.50;99.90;;;;;;6111180;23;20054;-67
2023/09/25 12:34:31;;;;;;;5.28;2.40;;;17.70;99.90;;;;;;6121861;23;20049;-67
2023/09/25 12:36:57;;;;;;;5.93;2.70;;;18.40;99.90;;;;;;6123052;23;20329;-68
2023/09/25 12:39:22;;;;;;;6.57;2.42;;;18.40;99.90;;;;;;6123199;23;20010;-68
2023/09/25 12:41:48;;;;;;;6.93;2.90;;;18.40;99.90;;;;;;6123331;23;20021;-67
2023/09/25 12:44:14;;;;;;;6.55;2.47;;;18.90;99.90;;;;;;6123458;23;20022;-68
2023/09/25 12:46:40;;;;;;;5.63;2.05;;;18.50;99.90;;;;;;6121273;23;20149;-68
2023/09/25 12:49:05;;;;;;;7.03;2.40;;;17.60;99.90;;;;;;6121610;23;20014;-68